Huvudsida
METAR-TAF:

METAR-TAF

Flygplatser :

Mosjøens flygplats. Kjærstad

Mosjøen, Norge

latitud: 65-48N, longitud: 013-08E, höjd: 70 m

Aktuellt väderrapport

Denna rapport gjordes för 30 minuter sedan, klockan 07:20 UTC
Vind 7 kt från syd/sydost, varierande mellan ost och syd
Temperatur 5°C
Fuktighet 87%
Tryck 1006 hPa
Sikt 10 km eller mer
Få moln på en höjd av 1200 ft, Cumulonimbus.
Få moln på en höjd av 1800 ft
Brutna moln på en höjd av 2900 ft
regnskurar

METAR: ENMS 180720Z 15007KT 100V190 9999 SHRA FEW012CB FEW018 BKN029 05/03 Q1006 RMK WIND 412FT 18007G19KT 110V240

Tid: 09:50 (07:50 UTC)


TAF: saknas

Aktuella väderrapporter och prognoser från 4000 flygplatser (METAR- och TAF-rapporter).

De tillgängliga stationerna syns som gula och röda prickar på kartan.

För musen över prickarna för att se namnen på stationerna.

Klicka sedan för att få väderrapporter och prognoser.

För att ändra kartan: Klicka på de gröna knapparna med ett svart kors på för att zooma in; den gröna knappen med ett streck på för att zooma ut; eller på de gröna pilarna för angränsande kartor.


METAR-TAF: